Aviation Digital Data Service (ADDS)

Output produced by METARs form (2339 UTC 31 July 2014)
found at http://aviationweather.gov/adds/metars/
 
KHPN 312336Z 0100/0124 VRB02KT P6SM SCT150 BKN250 
     FM011500 16006KT P6SM FEW060 BKN250 
     FM011900 18009KT P6SM SCT060 BKN150 AMD NOT SKED